Impacts TAF Board INFO
FOR SITUATIONAL AWARENESS. NOT TO BE USED FOR FLIGHT PLANNING PURPOSES.
IDs:

KCLT - Charlotte/Douglas In, NC, US

Issued at 1439 UTC 16 Jan 2018
Updated at 1507 UTC 16 Jan 2018
Potential Impact None Slight Moderate High
Time1452Z 16/16Z 16/17Z 16/18Z 16/19Z 16/20Z 16/21Z 16/22Z 16/23Z 17/00Z 17/01Z 17/02Z 17/03Z 17/04Z>>
Type OBS PRVL PRVL PRVL PRVL PRVL PRVL PRVL PRVL PRVL PRVL PRVL PRVL PRVL
VIS 10 >6 >6 >6 >6 >6 >6 >6 >6 >6 >6 >6 >6 >6
CIG -- -- -- -- -- -- -- -- -- -- 100 100 100 100
Cover SCT FEW SCT SCT SCT SCT SCT SCT SCT SCT BKN BKN BKN BKN
FltCat VFR VFR VFR VFR VFR VFR VFR VFR VFR VFR VFR VFR VFR VFR
WX -- -- -- -- -- -- -- -- -- -- -- -- -- --
WDir 170 170 210 210 210 210 210 210 210 210 190 190 190 190
WSpd 6 5 6 6 6 6 6 6 6 6 4 4 4 4
WGst -- -- -- -- -- -- -- -- -- -- -- -- -- --

Raw TAF
KCLT 161439Z 1615/1718 17005KT P6SM FEW250
  FM161700 21006KT P6SM SCT250
  FM170100 19004KT P6SM SCT050 BKN100
  PROB30 1705/1707 4SM -RASN OVC025
  FM170700 31005KT 2SM -SN SCT007 BKN012
  FM171300 36009KT P6SM -SN OVC023
  FM171600 36009KT P6SM BKN035


Raw METAR
KCLT 161452Z 17006KT 10SM SCT250 03/M08 A3046 RMK AO2 SLP320 T00281078 53014
KCLT 161352Z 15005KT 10SM FEW250 M01/M08 A3044 RMK AO2 SLP314 T10061083
KCLT 161252Z 00000KT 10SM FEW250 M05/M09 A3043 RMK AO2 SLP313 T10501089

METAR Board
Radar Display
Forecast Discussion

FOR SITUATIONAL AWARENESS. NOT TO BE USED FOR FLIGHT PLANNING PURPOSES.